sensor_id;sensor_type;location;lat;lon;timestamp;P1;durP1;ratioP1;P2;durP2;ratioP2
31638;SDS011;18248;51.522;7.020;2022-12-18T00:01:03;116.45;;;44.38;;
31638;SDS011;18248;51.522;7.020;2022-12-18T00:04:04;150.48;;;57.78;;
31638;SDS011;18248;51.522;7.020;2022-12-18T00:07:04;121.75;;;49.38;;
31638;SDS011;18248;51.522;7.020;2022-12-18T00:10:04;118.65;;;45.97;;
31638;SDS011;18248;51.522;7.020;2022-12-18T00:13:03;113.38;;;44.65;;
31638;SDS011;18248;51.522;7.020;2022-12-18T00:16:05;106.68;;;43.28;;
31638;SDS011;18248;51.522;7.020;2022-12-18T00:19:06;118.53;;;46.13;;
31638;SDS011;18248;51.522;7.020;2022-12-18T00:22:05;101.78;;;41.15;;
31638;SDS011;18248;51.522;7.020;2022-12-18T00:25:04;143.32;;;56.05;;
31638;SDS011;18248;51.522;7.020;2022-12-18T00:28:03;124.55;;;45.17;;
31638;SDS011;18248;51.522;7.020;2022-12-18T00:31:05;107.40;;;44.95;;
31638;SDS011;18248;51.522;7.020;2022-12-18T00:34:05;136.38;;;56.22;;
31638;SDS011;18248;51.522;7.020;2022-12-18T00:37:04;103.93;;;42.80;;
31638;SDS011;18248;51.522;7.020;2022-12-18T00:40:02;124.32;;;45.30;;
31638;SDS011;18248;51.522;7.020;2022-12-18T00:43:01;104.32;;;40.58;;
31638;SDS011;18248;51.522;7.020;2022-12-18T00:46:00;114.15;;;41.42;;
31638;SDS011;18248;51.522;7.020;2022-12-18T00:48:58;106.80;;;40.75;;
31638;SDS011;18248;51.522;7.020;2022-12-18T00:51:57;97.40;;;37.13;;
31638;SDS011;18248;51.522;7.020;2022-12-18T00:54:56;126.00;;;48.05;;
31638;SDS011;18248;51.522;7.020;2022-12-18T00:57:54;133.95;;;49.22;;
31638;SDS011;18248;51.522;7.020;2022-12-18T01:00:53;115.72;;;42.72;;
31638;SDS011;18248;51.522;7.020;2022-12-18T01:03:51;100.40;;;38.72;;
31638;SDS011;18248;51.522;7.020;2022-12-18T01:06:50;98.53;;;38.95;;
31638;SDS011;18248;51.522;7.020;2022-12-18T01:09:48;101.13;;;38.15;;
31638;SDS011;18248;51.522;7.020;2022-12-18T01:12:47;107.70;;;39.55;;
31638;SDS011;18248;51.522;7.020;2022-12-18T01:15:49;106.05;;;40.63;;
31638;SDS011;18248;51.522;7.020;2022-12-18T01:18:52;124.85;;;45.20;;
31638;SDS011;18248;51.522;7.020;2022-12-18T01:21:54;127.78;;;47.53;;
31638;SDS011;18248;51.522;7.020;2022-12-18T01:24:53;121.65;;;43.40;;
31638;SDS011;18248;51.522;7.020;2022-12-18T01:27:53;94.15;;;37.40;;
31638;SDS011;18248;51.522;7.020;2022-12-18T01:30:53;105.30;;;38.45;;
31638;SDS011;18248;51.522;7.020;2022-12-18T01:33:52;105.20;;;40.97;;
31638;SDS011;18248;51.522;7.020;2022-12-18T01:36:51;103.07;;;41.30;;
31638;SDS011;18248;51.522;7.020;2022-12-18T01:39:50;101.75;;;37.80;;
31638;SDS011;18248;51.522;7.020;2022-12-18T01:42:52;108.82;;;41.10;;
31638;SDS011;18248;51.522;7.020;2022-12-18T01:45:51;136.57;;;50.10;;
31638;SDS011;18248;51.522;7.020;2022-12-18T01:48:51;160.32;;;55.40;;
31638;SDS011;18248;51.522;7.020;2022-12-18T01:51:58;104.90;;;40.35;;
31638;SDS011;18248;51.522;7.020;2022-12-18T01:54:57;140.40;;;50.13;;
31638;SDS011;18248;51.522;7.020;2022-12-18T01:57:58;123.13;;;44.95;;
31638;SDS011;18248;51.522;7.020;2022-12-18T02:00:58;111.57;;;42.15;;
31638;SDS011;18248;51.522;7.020;2022-12-18T02:03:56;108.63;;;39.65;;
31638;SDS011;18248;51.522;7.020;2022-12-18T02:14:21;108.07;;;39.25;;
31638;SDS011;18248;51.522;7.020;2022-12-18T02:18:04;130.30;;;49.58;;
31638;SDS011;18248;51.522;7.020;2022-12-18T02:24:35;116.05;;;45.45;;
31638;SDS011;18248;51.522;7.020;2022-12-18T02:27:38;103.13;;;39.08;;
31638;SDS011;18248;51.522;7.020;2022-12-18T02:30:38;92.50;;;37.20;;
31638;SDS011;18248;51.522;7.020;2022-12-18T02:33:39;89.70;;;35.95;;
31638;SDS011;18248;51.522;7.020;2022-12-18T02:36:40;90.88;;;35.90;;
31638;SDS011;18248;51.522;7.020;2022-12-18T02:39:42;86.47;;;37.13;;
31638;SDS011;18248;51.522;7.020;2022-12-18T02:42:42;92.75;;;38.88;;
31638;SDS011;18248;51.522;7.020;2022-12-18T02:45:52;103.60;;;38.67;;
31638;SDS011;18248;51.522;7.020;2022-12-18T02:48:55;100.88;;;37.58;;
31638;SDS011;18248;51.522;7.020;2022-12-18T02:59:08;103.22;;;39.65;;
31638;SDS011;18248;51.522;7.020;2022-12-18T03:03:14;95.00;;;36.00;;
31638;SDS011;18248;51.522;7.020;2022-12-18T03:05:50;85.70;;;36.57;;
31638;SDS011;18248;51.522;7.020;2022-12-18T03:08:56;92.00;;;38.22;;
31638;SDS011;18248;51.522;7.020;2022-12-18T03:12:06;87.57;;;35.88;;
31638;SDS011;18248;51.522;7.020;2022-12-18T03:15:27;104.13;;;39.22;;
31638;SDS011;18248;51.522;7.020;2022-12-18T03:18:30;91.15;;;31.92;;
31638;SDS011;18248;51.522;7.020;2022-12-18T03:21:39;94.55;;;35.50;;
31638;SDS011;18248;51.522;7.020;2022-12-18T03:24:41;96.80;;;38.33;;
31638;SDS011;18248;51.522;7.020;2022-12-18T03:27:41;95.63;;;38.97;;
31638;SDS011;18248;51.522;7.020;2022-12-18T03:30:43;88.68;;;37.92;;
31638;SDS011;18248;51.522;7.020;2022-12-18T03:33:45;97.10;;;38.00;;
31638;SDS011;18248;51.522;7.020;2022-12-18T03:36:49;81.57;;;35.13;;
31638;SDS011;18248;51.522;7.020;2022-12-18T03:39:48;107.20;;;40.40;;
31638;SDS011;18248;51.522;7.020;2022-12-18T03:42:48;87.38;;;35.67;;
31638;SDS011;18248;51.522;7.020;2022-12-18T03:45:52;87.78;;;34.50;;
31638;SDS011;18248;51.522;7.020;2022-12-18T03:52:21;98.03;;;39.05;;
31638;SDS011;18248;51.522;7.020;2022-12-18T03:55:40;85.60;;;34.28;;
31638;SDS011;18248;51.522;7.020;2022-12-18T03:58:42;94.50;;;35.60;;
31638;SDS011;18248;51.522;7.020;2022-12-18T04:01:46;85.53;;;34.58;;
31638;SDS011;18248;51.522;7.020;2022-12-18T04:04:48;81.03;;;32.03;;
31638;SDS011;18248;51.522;7.020;2022-12-18T04:07:54;71.72;;;30.08;;
31638;SDS011;18248;51.522;7.020;2022-12-18T04:10:55;82.45;;;33.45;;
31638;SDS011;18248;51.522;7.020;2022-12-18T04:13:57;75.13;;;32.63;;
31638;SDS011;18248;51.522;7.020;2022-12-18T04:16:56;75.07;;;30.20;;
31638;SDS011;18248;51.522;7.020;2022-12-18T04:19:54;68.63;;;29.17;;
31638;SDS011;18248;51.522;7.020;2022-12-18T04:22:53;71.35;;;29.55;;
31638;SDS011;18248;51.522;7.020;2022-12-18T04:25:51;67.75;;;28.75;;
31638;SDS011;18248;51.522;7.020;2022-12-18T04:28:50;77.22;;;32.78;;
31638;SDS011;18248;51.522;7.020;2022-12-18T04:31:48;84.45;;;33.03;;
31638;SDS011;18248;51.522;7.020;2022-12-18T04:34:47;70.28;;;29.90;;
31638;SDS011;18248;51.522;7.020;2022-12-18T04:37:45;75.45;;;30.88;;
31638;SDS011;18248;51.522;7.020;2022-12-18T04:40:44;73.10;;;31.08;;
31638;SDS011;18248;51.522;7.020;2022-12-18T04:43:42;78.32;;;30.73;;
31638;SDS011;18248;51.522;7.020;2022-12-18T04:46:41;74.78;;;29.90;;
31638;SDS011;18248;51.522;7.020;2022-12-18T04:49:39;90.85;;;36.90;;
31638;SDS011;18248;51.522;7.020;2022-12-18T04:52:38;86.28;;;33.70;;
31638;SDS011;18248;51.522;7.020;2022-12-18T04:55:36;71.00;;;30.30;;
31638;SDS011;18248;51.522;7.020;2022-12-18T04:58:35;85.75;;;34.08;;
31638;SDS011;18248;51.522;7.020;2022-12-18T05:01:35;81.25;;;30.48;;
31638;SDS011;18248;51.522;7.020;2022-12-18T05:04:33;72.15;;;30.80;;
31638;SDS011;18248;51.522;7.020;2022-12-18T05:07:31;79.93;;;32.58;;
31638;SDS011;18248;51.522;7.020;2022-12-18T05:10:30;80.07;;;33.22;;
31638;SDS011;18248;51.522;7.020;2022-12-18T05:13:29;100.95;;;41.17;;
31638;SDS011;18248;51.522;7.020;2022-12-18T05:16:27;76.70;;;32.05;;
31638;SDS011;18248;51.522;7.020;2022-12-18T05:19:26;106.82;;;43.25;;
31638;SDS011;18248;51.522;7.020;2022-12-18T05:22:24;87.93;;;34.90;;
31638;SDS011;18248;51.522;7.020;2022-12-18T05:25:23;82.35;;;34.35;;
31638;SDS011;18248;51.522;7.020;2022-12-18T05:28:23;74.10;;;31.45;;
31638;SDS011;18248;51.522;7.020;2022-12-18T05:31:22;75.88;;;33.03;;
31638;SDS011;18248;51.522;7.020;2022-12-18T05:34:21;71.47;;;30.05;;
31638;SDS011;18248;51.522;7.020;2022-12-18T05:37:19;74.50;;;31.85;;
31638;SDS011;18248;51.522;7.020;2022-12-18T05:40:18;77.53;;;32.38;;
31638;SDS011;18248;51.522;7.020;2022-12-18T05:43:17;79.55;;;33.47;;
31638;SDS011;18248;51.522;7.020;2022-12-18T05:46:17;90.30;;;39.67;;
31638;SDS011;18248;51.522;7.020;2022-12-18T05:49:16;84.22;;;36.67;;
31638;SDS011;18248;51.522;7.020;2022-12-18T05:52:14;75.03;;;31.00;;
31638;SDS011;18248;51.522;7.020;2022-12-18T05:55:13;74.07;;;31.38;;
31638;SDS011;18248;51.522;7.020;2022-12-18T05:58:12;78.68;;;30.70;;
31638;SDS011;18248;51.522;7.020;2022-12-18T06:01:13;91.82;;;42.00;;
31638;SDS011;18248;51.522;7.020;2022-12-18T06:04:17;93.25;;;38.05;;
31638;SDS011;18248;51.522;7.020;2022-12-18T06:07:17;83.55;;;35.45;;
31638;SDS011;18248;51.522;7.020;2022-12-18T06:10:15;102.60;;;39.65;;
31638;SDS011;18248;51.522;7.020;2022-12-18T06:13:14;94.30;;;38.50;;
31638;SDS011;18248;51.522;7.020;2022-12-18T06:16:13;78.40;;;32.15;;
31638;SDS011;18248;51.522;7.020;2022-12-18T06:19:13;93.50;;;38.67;;
31638;SDS011;18248;51.522;7.020;2022-12-18T06:22:13;74.35;;;30.10;;
31638;SDS011;18248;51.522;7.020;2022-12-18T06:25:11;89.07;;;35.60;;
31638;SDS011;18248;51.522;7.020;2022-12-18T06:28:10;80.30;;;32.67;;
31638;SDS011;18248;51.522;7.020;2022-12-18T06:31:09;72.15;;;30.92;;
31638;SDS011;18248;51.522;7.020;2022-12-18T06:34:08;80.03;;;32.38;;
31638;SDS011;18248;51.522;7.020;2022-12-18T06:37:06;71.47;;;28.48;;
31638;SDS011;18248;51.522;7.020;2022-12-18T06:40:05;78.45;;;31.08;;
31638;SDS011;18248;51.522;7.020;2022-12-18T06:43:05;73.15;;;30.25;;
31638;SDS011;18248;51.522;7.020;2022-12-18T06:46:04;69.60;;;28.52;;
31638;SDS011;18248;51.522;7.020;2022-12-18T06:49:03;65.55;;;28.38;;
31638;SDS011;18248;51.522;7.020;2022-12-18T06:52:01;80.28;;;35.17;;
31638;SDS011;18248;51.522;7.020;2022-12-18T06:55:00;71.93;;;29.90;;
31638;SDS011;18248;51.522;7.020;2022-12-18T06:57:59;74.80;;;31.75;;
31638;SDS011;18248;51.522;7.020;2022-12-18T07:01:00;79.80;;;31.88;;
31638;SDS011;18248;51.522;7.020;2022-12-18T07:04:00;79.18;;;33.55;;
31638;SDS011;18248;51.522;7.020;2022-12-18T07:07:01;77.47;;;29.90;;
31638;SDS011;18248;51.522;7.020;2022-12-18T07:10:00;75.97;;;29.13;;
31638;SDS011;18248;51.522;7.020;2022-12-18T07:12:58;73.05;;;29.23;;
31638;SDS011;18248;51.522;7.020;2022-12-18T07:16:30;68.70;;;27.98;;
31638;SDS011;18248;51.522;7.020;2022-12-18T07:19:22;69.45;;;28.90;;
31638;SDS011;18248;51.522;7.020;2022-12-18T07:22:24;61.55;;;25.65;;
31638;SDS011;18248;51.522;7.020;2022-12-18T07:25:23;71.03;;;28.48;;
31638;SDS011;18248;51.522;7.020;2022-12-18T07:28:22;67.50;;;27.25;;
31638;SDS011;18248;51.522;7.020;2022-12-18T07:31:21;90.25;;;36.90;;
31638;SDS011;18248;51.522;7.020;2022-12-18T07:34:20;67.38;;;28.23;;
31638;SDS011;18248;51.522;7.020;2022-12-18T07:37:19;60.83;;;25.55;;
31638;SDS011;18248;51.522;7.020;2022-12-18T07:40:17;82.20;;;35.78;;
31638;SDS011;18248;51.522;7.020;2022-12-18T07:43:16;72.68;;;29.00;;
31638;SDS011;18248;51.522;7.020;2022-12-18T07:46:14;80.03;;;30.95;;
31638;SDS011;18248;51.522;7.020;2022-12-18T07:49:14;67.63;;;27.75;;
31638;SDS011;18248;51.522;7.020;2022-12-18T07:52:13;68.53;;;29.63;;
31638;SDS011;18248;51.522;7.020;2022-12-18T07:55:11;59.38;;;25.10;;
31638;SDS011;18248;51.522;7.020;2022-12-18T07:58:10;62.38;;;25.40;;
31638;SDS011;18248;51.522;7.020;2022-12-18T08:01:10;58.22;;;25.45;;
31638;SDS011;18248;51.522;7.020;2022-12-18T08:04:09;69.75;;;29.55;;
31638;SDS011;18248;51.522;7.020;2022-12-18T08:07:08;57.38;;;25.10;;
31638;SDS011;18248;51.522;7.020;2022-12-18T08:10:07;62.67;;;25.05;;
31638;SDS011;18248;51.522;7.020;2022-12-18T08:13:06;70.57;;;28.58;;
31638;SDS011;18248;51.522;7.020;2022-12-18T08:16:06;70.88;;;27.88;;
31638;SDS011;18248;51.522;7.020;2022-12-18T08:19:05;66.97;;;28.35;;
31638;SDS011;18248;51.522;7.020;2022-12-18T08:22:03;64.78;;;27.77;;
31638;SDS011;18248;51.522;7.020;2022-12-18T08:25:02;61.47;;;27.83;;
31638;SDS011;18248;51.522;7.020;2022-12-18T08:28:01;59.60;;;25.83;;
31638;SDS011;18248;51.522;7.020;2022-12-18T08:31:00;62.47;;;27.70;;
31638;SDS011;18248;51.522;7.020;2022-12-18T08:33:59;56.88;;;24.58;;
31638;SDS011;18248;51.522;7.020;2022-12-18T08:36:57;66.65;;;27.98;;
31638;SDS011;18248;51.522;7.020;2022-12-18T08:39:56;56.35;;;25.23;;
31638;SDS011;18248;51.522;7.020;2022-12-18T08:42:54;67.60;;;28.08;;
31638;SDS011;18248;51.522;7.020;2022-12-18T08:46:11;65.15;;;27.05;;
31638;SDS011;18248;51.522;7.020;2022-12-18T08:49:10;58.90;;;26.65;;
31638;SDS011;18248;51.522;7.020;2022-12-18T08:52:09;67.97;;;29.45;;
31638;SDS011;18248;51.522;7.020;2022-12-18T08:55:08;63.70;;;25.70;;
31638;SDS011;18248;51.522;7.020;2022-12-18T08:58:09;71.15;;;24.83;;
31638;SDS011;18248;51.522;7.020;2022-12-18T09:01:08;63.45;;;25.50;;
31638;SDS011;18248;51.522;7.020;2022-12-18T09:04:09;55.53;;;23.27;;
31638;SDS011;18248;51.522;7.020;2022-12-18T09:07:07;54.30;;;22.20;;
31638;SDS011;18248;51.522;7.020;2022-12-18T09:10:07;43.90;;;19.88;;
31638;SDS011;18248;51.522;7.020;2022-12-18T09:13:05;49.03;;;21.50;;
31638;SDS011;18248;51.522;7.020;2022-12-18T09:16:04;44.30;;;19.48;;
31638;SDS011;18248;51.522;7.020;2022-12-18T09:19:03;42.20;;;19.50;;
31638;SDS011;18248;51.522;7.020;2022-12-18T09:22:02;43.05;;;19.35;;
31638;SDS011;18248;51.522;7.020;2022-12-18T09:25:01;54.17;;;23.83;;
31638;SDS011;18248;51.522;7.020;2022-12-18T09:28:00;47.70;;;20.63;;
31638;SDS011;18248;51.522;7.020;2022-12-18T09:31:07;45.47;;;20.67;;
31638;SDS011;18248;51.522;7.020;2022-12-18T09:34:08;51.40;;;22.10;;
31638;SDS011;18248;51.522;7.020;2022-12-18T09:37:07;40.42;;;19.50;;
31638;SDS011;18248;51.522;7.020;2022-12-18T09:40:05;44.75;;;20.50;;
31638;SDS011;18248;51.522;7.020;2022-12-18T09:43:04;45.83;;;20.23;;
31638;SDS011;18248;51.522;7.020;2022-12-18T09:46:06;50.45;;;22.17;;
31638;SDS011;18248;51.522;7.020;2022-12-18T09:49:11;50.47;;;21.20;;
31638;SDS011;18248;51.522;7.020;2022-12-18T09:52:27;46.22;;;21.25;;
31638;SDS011;18248;51.522;7.020;2022-12-18T09:55:40;42.40;;;18.65;;
31638;SDS011;18248;51.522;7.020;2022-12-18T09:58:54;41.85;;;19.80;;
31638;SDS011;18248;51.522;7.020;2022-12-18T10:01:56;41.20;;;19.77;;
31638;SDS011;18248;51.522;7.020;2022-12-18T10:08:11;52.70;;;25.40;;
31638;SDS011;18248;51.522;7.020;2022-12-18T10:14:32;51.33;;;22.75;;
31638;SDS011;18248;51.522;7.020;2022-12-18T10:17:45;45.10;;;21.30;;
31638;SDS011;18248;51.522;7.020;2022-12-18T10:20:54;45.17;;;20.92;;
31638;SDS011;18248;51.522;7.020;2022-12-18T10:27:24;39.45;;;18.95;;
31638;SDS011;18248;51.522;7.020;2022-12-18T10:30:25;34.33;;;17.80;;
31638;SDS011;18248;51.522;7.020;2022-12-18T10:33:28;42.50;;;20.23;;
31638;SDS011;18248;51.522;7.020;2022-12-18T10:36:29;39.92;;;20.05;;
31638;SDS011;18248;51.522;7.020;2022-12-18T10:39:28;32.38;;;16.73;;
31638;SDS011;18248;51.522;7.020;2022-12-18T10:42:26;38.22;;;17.95;;
31638;SDS011;18248;51.522;7.020;2022-12-18T10:45:25;36.25;;;18.00;;
31638;SDS011;18248;51.522;7.020;2022-12-18T10:48:23;39.95;;;18.48;;
31638;SDS011;18248;51.522;7.020;2022-12-18T10:51:35;36.50;;;17.52;;
31638;SDS011;18248;51.522;7.020;2022-12-18T10:54:35;31.48;;;15.95;;
31638;SDS011;18248;51.522;7.020;2022-12-18T10:57:35;34.10;;;17.50;;
31638;SDS011;18248;51.522;7.020;2022-12-18T11:00:39;37.08;;;18.88;;
31638;SDS011;18248;51.522;7.020;2022-12-18T11:03:43;37.22;;;17.95;;
31638;SDS011;18248;51.522;7.020;2022-12-18T11:06:52;40.95;;;19.23;;
31638;SDS011;18248;51.522;7.020;2022-12-18T11:10:00;41.05;;;20.85;;
31638;SDS011;18248;51.522;7.020;2022-12-18T11:16:19;36.90;;;16.75;;
31638;SDS011;18248;51.522;7.020;2022-12-18T11:22:36;37.35;;;17.92;;
31638;SDS011;18248;51.522;7.020;2022-12-18T11:25:36;40.03;;;19.48;;
31638;SDS011;18248;51.522;7.020;2022-12-18T11:28:36;40.17;;;19.00;;
31638;SDS011;18248;51.522;7.020;2022-12-18T11:31:39;39.70;;;20.48;;
31638;SDS011;18248;51.522;7.020;2022-12-18T11:34:38;42.88;;;20.40;;
31638;SDS011;18248;51.522;7.020;2022-12-18T11:37:41;42.08;;;19.85;;
31638;SDS011;18248;51.522;7.020;2022-12-18T11:40:44;37.58;;;19.17;;
31638;SDS011;18248;51.522;7.020;2022-12-18T11:43:50;34.10;;;18.30;;
31638;SDS011;18248;51.522;7.020;2022-12-18T11:46:59;35.45;;;18.00;;
31638;SDS011;18248;51.522;7.020;2022-12-18T11:50:02;41.58;;;19.80;;
31638;SDS011;18248;51.522;7.020;2022-12-18T11:53:11;38.38;;;18.65;;
31638;SDS011;18248;51.522;7.020;2022-12-18T11:56:23;38.38;;;18.17;;
31638;SDS011;18248;51.522;7.020;2022-12-18T12:06:23;35.17;;;18.38;;
31638;SDS011;18248;51.522;7.020;2022-12-18T12:09:33;34.97;;;17.05;;
31638;SDS011;18248;51.522;7.020;2022-12-18T12:35:51;36.83;;;18.05;;
31638;SDS011;18248;51.522;7.020;2022-12-18T12:39:01;33.75;;;16.58;;
31638;SDS011;18248;51.522;7.020;2022-12-18T12:42:11;38.90;;;19.35;;
31638;SDS011;18248;51.522;7.020;2022-12-18T12:45:41;32.10;;;17.33;;
31638;SDS011;18248;51.522;7.020;2022-12-18T12:48:52;33.63;;;16.98;;
31638;SDS011;18248;51.522;7.020;2022-12-18T12:52:03;30.30;;;15.35;;
31638;SDS011;18248;51.522;7.020;2022-12-18T12:55:07;27.27;;;14.20;;
31638;SDS011;18248;51.522;7.020;2022-12-18T12:58:23;30.42;;;15.65;;
31638;SDS011;18248;51.522;7.020;2022-12-18T13:01:49;39.88;;;20.98;;
31638;SDS011;18248;51.522;7.020;2022-12-18T13:08:28;30.70;;;16.88;;
31638;SDS011;18248;51.522;7.020;2022-12-18T13:11:36;32.97;;;17.15;;
31638;SDS011;18248;51.522;7.020;2022-12-18T13:15:11;28.67;;;15.48;;
31638;SDS011;18248;51.522;7.020;2022-12-18T13:18:20;30.92;;;16.10;;
31638;SDS011;18248;51.522;7.020;2022-12-18T13:21:25;28.20;;;15.38;;
31638;SDS011;18248;51.522;7.020;2022-12-18T13:24:27;33.72;;;16.73;;
31638;SDS011;18248;51.522;7.020;2022-12-18T13:28:04;34.20;;;18.42;;
31638;SDS011;18248;51.522;7.020;2022-12-18T13:30:55;30.40;;;15.60;;
31638;SDS011;18248;51.522;7.020;2022-12-18T13:34:18;32.17;;;17.13;;
31638;SDS011;18248;51.522;7.020;2022-12-18T13:43:39;32.30;;;15.80;;
31638;SDS011;18248;51.522;7.020;2022-12-18T13:46:45;32.65;;;16.63;;
31638;SDS011;18248;51.522;7.020;2022-12-18T13:49:45;33.92;;;17.45;;
31638;SDS011;18248;51.522;7.020;2022-12-18T13:52:44;33.00;;;17.40;;
31638;SDS011;18248;51.522;7.020;2022-12-18T13:55:44;36.10;;;18.75;;
31638;SDS011;18248;51.522;7.020;2022-12-18T13:58:43;32.45;;;16.83;;
31638;SDS011;18248;51.522;7.020;2022-12-18T14:04:45;34.35;;;17.42;;
31638;SDS011;18248;51.522;7.020;2022-12-18T14:07:44;44.25;;;20.15;;
31638;SDS011;18248;51.522;7.020;2022-12-18T14:10:43;41.15;;;20.30;;
31638;SDS011;18248;51.522;7.020;2022-12-18T14:13:44;42.65;;;21.20;;
31638;SDS011;18248;51.522;7.020;2022-12-18T14:16:45;49.65;;;24.75;;
31638;SDS011;18248;51.522;7.020;2022-12-18T14:19:45;47.00;;;22.45;;
31638;SDS011;18248;51.522;7.020;2022-12-18T14:22:46;50.38;;;23.52;;
31638;SDS011;18248;51.522;7.020;2022-12-18T14:25:46;51.53;;;24.65;;
31638;SDS011;18248;51.522;7.020;2022-12-18T14:28:45;48.17;;;23.15;;
31638;SDS011;18248;51.522;7.020;2022-12-18T14:31:44;44.88;;;21.48;;
31638;SDS011;18248;51.522;7.020;2022-12-18T14:34:43;43.00;;;21.65;;
31638;SDS011;18248;51.522;7.020;2022-12-18T14:37:46;47.78;;;23.20;;
31638;SDS011;18248;51.522;7.020;2022-12-18T14:40:44;44.08;;;22.95;;
31638;SDS011;18248;51.522;7.020;2022-12-18T14:43:44;46.72;;;23.73;;
31638;SDS011;18248;51.522;7.020;2022-12-18T14:46:45;52.67;;;27.17;;
31638;SDS011;18248;51.522;7.020;2022-12-18T14:49:45;57.25;;;27.75;;
31638;SDS011;18248;51.522;7.020;2022-12-18T14:52:43;26.95;;;13.68;;
31638;SDS011;18248;51.522;7.020;2022-12-18T14:55:45;25.90;;;12.27;;
31638;SDS011;18248;51.522;7.020;2022-12-18T14:58:49;27.70;;;11.70;;
31638;SDS011;18248;51.522;7.020;2022-12-18T15:01:56;23.35;;;11.02;;
31638;SDS011;18248;51.522;7.020;2022-12-18T15:05:03;22.92;;;10.85;;
31638;SDS011;18248;51.522;7.020;2022-12-18T15:08:25;33.08;;;11.85;;
31638;SDS011;18248;51.522;7.020;2022-12-18T15:14:42;30.00;;;11.90;;
31638;SDS011;18248;51.522;7.020;2022-12-18T15:17:41;22.90;;;11.00;;
31638;SDS011;18248;51.522;7.020;2022-12-18T15:23:48;23.23;;;10.30;;
31638;SDS011;18248;51.522;7.020;2022-12-18T15:26:49;33.53;;;12.13;;
31638;SDS011;18248;51.522;7.020;2022-12-18T15:33:24;27.45;;;10.80;;
31638;SDS011;18248;51.522;7.020;2022-12-18T15:36:24;27.42;;;11.43;;
31638;SDS011;18248;51.522;7.020;2022-12-18T15:39:23;21.42;;;11.65;;
31638;SDS011;18248;51.522;7.020;2022-12-18T15:42:22;29.55;;;12.18;;
31638;SDS011;18248;51.522;7.020;2022-12-18T15:45:39;23.17;;;10.40;;
31638;SDS011;18248;51.522;7.020;2022-12-18T15:48:42;23.05;;;10.88;;
31638;SDS011;18248;51.522;7.020;2022-12-18T15:51:42;24.17;;;10.55;;
31638;SDS011;18248;51.522;7.020;2022-12-18T15:54:41;27.02;;;11.82;;
31638;SDS011;18248;51.522;7.020;2022-12-18T15:57:59;27.75;;;13.15;;
31638;SDS011;18248;51.522;7.020;2022-12-18T16:00:58;29.85;;;12.60;;
31638;SDS011;18248;51.522;7.020;2022-12-18T16:03:58;27.88;;;12.57;;
31638;SDS011;18248;51.522;7.020;2022-12-18T16:06:57;23.08;;;11.35;;
31638;SDS011;18248;51.522;7.020;2022-12-18T16:09:55;25.73;;;13.18;;
31638;SDS011;18248;51.522;7.020;2022-12-18T16:12:55;25.63;;;12.48;;
31638;SDS011;18248;51.522;7.020;2022-12-18T16:15:53;25.23;;;12.50;;
31638;SDS011;18248;51.522;7.020;2022-12-18T16:18:52;27.02;;;12.30;;
31638;SDS011;18248;51.522;7.020;2022-12-18T16:21:51;23.30;;;11.75;;
31638;SDS011;18248;51.522;7.020;2022-12-18T16:24:51;26.83;;;11.93;;
31638;SDS011;18248;51.522;7.020;2022-12-18T16:27:51;29.00;;;13.70;;
31638;SDS011;18248;51.522;7.020;2022-12-18T16:30:52;32.90;;;14.75;;
31638;SDS011;18248;51.522;7.020;2022-12-18T16:34:09;42.58;;;20.52;;
31638;SDS011;18248;51.522;7.020;2022-12-18T16:37:19;32.90;;;15.82;;
31638;SDS011;18248;51.522;7.020;2022-12-18T16:40:18;31.83;;;15.70;;
31638;SDS011;18248;51.522;7.020;2022-12-18T16:43:16;33.25;;;16.38;;
31638;SDS011;18248;51.522;7.020;2022-12-18T16:46:15;30.08;;;15.27;;
31638;SDS011;18248;51.522;7.020;2022-12-18T16:49:14;36.47;;;16.00;;
31638;SDS011;18248;51.522;7.020;2022-12-18T16:52:14;26.50;;;13.75;;
31638;SDS011;18248;51.522;7.020;2022-12-18T16:55:12;29.08;;;14.85;;
31638;SDS011;18248;51.522;7.020;2022-12-18T16:58:11;30.10;;;15.23;;
31638;SDS011;18248;51.522;7.020;2022-12-18T17:01:10;28.38;;;14.35;;
31638;SDS011;18248;51.522;7.020;2022-12-18T17:04:09;30.05;;;14.45;;
31638;SDS011;18248;51.522;7.020;2022-12-18T17:07:08;32.83;;;15.68;;
31638;SDS011;18248;51.522;7.020;2022-12-18T17:10:08;29.13;;;14.70;;
31638;SDS011;18248;51.522;7.020;2022-12-18T17:13:08;29.08;;;14.48;;
31638;SDS011;18248;51.522;7.020;2022-12-18T17:16:06;36.00;;;16.17;;
31638;SDS011;18248;51.522;7.020;2022-12-18T17:19:06;34.28;;;16.38;;
31638;SDS011;18248;51.522;7.020;2022-12-18T17:22:05;31.27;;;16.45;;
31638;SDS011;18248;51.522;7.020;2022-12-18T17:25:05;30.45;;;16.45;;
31638;SDS011;18248;51.522;7.020;2022-12-18T17:28:05;33.67;;;16.60;;
31638;SDS011;18248;51.522;7.020;2022-12-18T17:31:15;32.90;;;16.13;;
31638;SDS011;18248;51.522;7.020;2022-12-18T17:34:18;31.25;;;16.00;;
31638;SDS011;18248;51.522;7.020;2022-12-18T17:37:18;51.88;;;22.63;;
31638;SDS011;18248;51.522;7.020;2022-12-18T17:40:17;35.63;;;18.15;;
31638;SDS011;18248;51.522;7.020;2022-12-18T17:43:16;40.92;;;18.73;;
31638;SDS011;18248;51.522;7.020;2022-12-18T17:46:14;36.67;;;17.90;;
31638;SDS011;18248;51.522;7.020;2022-12-18T17:49:13;39.45;;;18.88;;
31638;SDS011;18248;51.522;7.020;2022-12-18T17:52:12;37.53;;;18.90;;
31638;SDS011;18248;51.522;7.020;2022-12-18T17:55:11;42.15;;;19.77;;
31638;SDS011;18248;51.522;7.020;2022-12-18T17:58:10;40.80;;;19.60;;
31638;SDS011;18248;51.522;7.020;2022-12-18T18:01:10;37.95;;;18.05;;
31638;SDS011;18248;51.522;7.020;2022-12-18T18:04:10;44.33;;;21.02;;
31638;SDS011;18248;51.522;7.020;2022-12-18T18:07:09;48.05;;;21.60;;
31638;SDS011;18248;51.522;7.020;2022-12-18T18:10:08;40.95;;;19.98;;
31638;SDS011;18248;51.522;7.020;2022-12-18T18:13:16;44.25;;;21.40;;
31638;SDS011;18248;51.522;7.020;2022-12-18T18:16:37;46.72;;;20.75;;
31638;SDS011;18248;51.522;7.020;2022-12-18T18:19:37;45.45;;;20.92;;
31638;SDS011;18248;51.522;7.020;2022-12-18T18:22:38;44.72;;;21.30;;
31638;SDS011;18248;51.522;7.020;2022-12-18T18:25:37;44.33;;;20.92;;
31638;SDS011;18248;51.522;7.020;2022-12-18T18:28:37;49.13;;;21.25;;
31638;SDS011;18248;51.522;7.020;2022-12-18T18:31:38;38.88;;;18.83;;
31638;SDS011;18248;51.522;7.020;2022-12-18T18:34:36;40.35;;;20.92;;
31638;SDS011;18248;51.522;7.020;2022-12-18T18:37:35;48.47;;;21.92;;
31638;SDS011;18248;51.522;7.020;2022-12-18T18:40:34;43.25;;;20.75;;
31638;SDS011;18248;51.522;7.020;2022-12-18T18:43:32;45.67;;;20.60;;
31638;SDS011;18248;51.522;7.020;2022-12-18T18:46:31;43.50;;;21.27;;
31638;SDS011;18248;51.522;7.020;2022-12-18T18:49:30;48.78;;;22.58;;
31638;SDS011;18248;51.522;7.020;2022-12-18T18:52:28;45.25;;;20.95;;
31638;SDS011;18248;51.522;7.020;2022-12-18T18:55:27;52.92;;;25.58;;
31638;SDS011;18248;51.522;7.020;2022-12-18T18:58:25;46.75;;;21.95;;
31638;SDS011;18248;51.522;7.020;2022-12-18T19:01:25;43.92;;;21.65;;
31638;SDS011;18248;51.522;7.020;2022-12-18T19:04:24;43.00;;;21.38;;
31638;SDS011;18248;51.522;7.020;2022-12-18T19:07:23;42.92;;;20.35;;
31638;SDS011;18248;51.522;7.020;2022-12-18T19:10:21;46.10;;;22.75;;